Time;durP1;ratioP1;P1;durP2;ratioP2;P2;SDS_P1;SDS_P2;PMS_P1;PMS_P2;Temp;Humidity;BMP_temperature;BMP_pressure;BME280_temperature;BME280_humidity;BME280_pressure;Samples;Min_cycle;Max_cycle;Signal;HPM_P1;HPM_P2
2022/03/03 00:01:23;;;;;;;45.80;19.80;;;;;;;-5.15;81.63;99864.80;103506;1300;24363;-28
2022/03/03 00:03:48;;;;;;;58.90;21.60;;;;;;;-5.22;84.02;99868.30;103540;1302;24233;-29
2022/03/03 00:06:14;;;;;;;75.80;24.20;;;;;;;-5.28;83.98;99867.40;103570;1300;22508;-29
2022/03/03 00:08:40;;;;;;;57.40;21.10;;;;;;;-5.31;82.55;99863.73;103543;1300;24307;-25
2022/03/03 00:11:05;;;;;;;52.60;18.40;;;;;;;-5.25;81.59;99861.33;103535;1300;22493;-28
2022/03/03 00:13:31;;;;;;;56.80;19.40;;;;;;;-5.23;81.92;99854.55;103535;1300;24238;-24
2022/03/03 00:15:57;;;;;;;54.20;17.40;;;;;;;-5.15;81.92;99858.11;103288;1302;24211;-30
2022/03/03 00:18:22;;;;;;;67.90;20.60;;;;;;;-5.07;82.77;99856.85;103505;1300;24200;-28
2022/03/03 00:20:48;;;;;;;64.80;20.10;;;;;;;-5.09;81.57;99851.14;103519;1300;24356;-28
2022/03/03 00:23:13;;;;;;;70.20;19.90;;;;;;;-5.17;82.12;99845.66;103589;1300;24291;-25
2022/03/03 00:25:39;;;;;;;63.40;20.00;;;;;;;-5.18;82.52;99841.17;103543;1300;24245;-25
2022/03/03 00:28:06;;;;;;;55.70;17.30;;;;;;;-5.23;82.39;99837.77;103439;1300;22507;-29
2022/03/03 00:30:32;;;;;;;50.40;19.10;;;;;;;-5.27;82.03;99838.04;103470;1302;24315;-25
2022/03/03 00:32:58;;;;;;;51.50;19.90;;;;;;;-5.34;82.71;99842.44;103534;1301;24280;-25
2022/03/03 00:35:23;;;;;;;50.10;18.40;;;;;;;-5.39;82.10;99841.50;103625;1298;24348;-27
2022/03/03 00:37:49;;;;;;;44.40;17.20;;;;;;;-5.52;81.64;99846.90;103556;1302;22836;-29
2022/03/03 00:40:15;;;;;;;46.90;16.70;;;;;;;-5.59;81.91;99849.42;103537;1300;24274;-28
2022/03/03 00:42:40;;;;;;;54.20;17.30;;;;;;;-5.68;82.04;99849.36;103537;1300;24246;-28
2022/03/03 00:45:07;;;;;;;44.90;16.80;;;;;;;-5.73;82.45;99846.31;103580;1299;22603;-29
2022/03/03 00:47:33;;;;;;;30.90;12.40;;;;;;;-5.77;83.51;99847.39;103536;1300;24311;-25
2022/03/03 00:49:58;;;;;;;40.20;15.50;;;;;;;-5.77;84.74;99847.08;103560;1300;24344;-25
2022/03/03 00:52:24;;;;;;;33.30;11.10;;;;;;;-5.78;88.43;99844.65;103672;1299;24234;-27
2022/03/03 00:54:50;;;;;;;32.50;14.70;;;;;;;-5.76;89.93;99842.13;103549;1300;24234;-28
2022/03/03 00:57:15;;;;;;;23.40;10.30;;;;;;;-5.77;90.39;99844.80;103636;1299;24383;-25
2022/03/03 00:59:41;;;;;;;22.90;10.20;;;;;;;-5.74;91.62;99846.02;103645;1299;24301;-25
2022/03/03 01:02:07;;;;;;;28.50;12.00;;;;;;;-5.75;92.64;99843.80;103384;1300;24660;-29
2022/03/03 01:04:33;;;;;;;30.40;11.70;;;;;;;-5.70;93.04;99844.73;103650;1298;24371;-25
2022/03/03 01:06:59;;;;;;;40.70;12.90;;;;;;;-5.72;91.22;99839.42;103641;1299;24196;-25
2022/03/03 01:09:24;;;;;;;29.80;12.20;;;;;;;-5.74;90.72;99836.40;103510;1301;24311;-25
2022/03/03 01:11:50;;;;;;;29.70;12.70;;;;;;;-5.72;91.52;99837.55;103646;1300;24713;-29
2022/03/03 01:14:21;;;;;;;31.40;12.90;;;;;;;-5.75;90.67;99835.25;103652;1299;22869;-25
2022/03/03 01:16:48;;;;;;;55.50;18.30;;;;;;;-5.75;90.22;99837.88;103582;1300;22498;-25
2022/03/03 01:19:14;;;;;;;47.60;19.10;;;;;;;-5.84;89.01;99834.52;103630;1299;24270;-27
2022/03/03 01:21:40;;;;;;;54.70;16.60;;;;;;;-5.95;88.89;99832.85;103782;1300;24340;-29
2022/03/03 01:24:06;;;;;;;36.90;14.80;;;;;;;-5.96;89.60;99829.45;103640;1299;24376;-25
2022/03/03 01:26:31;;;;;;;42.30;14.90;;;;;;;-5.97;89.60;99824.23;103692;1299;24301;-24
2022/03/03 01:28:59;;;;;;;46.30;16.10;;;;;;;-6.00;88.89;99825.98;103642;1299;22498;-28
2022/03/03 01:31:24;;;;;;;47.30;15.80;;;;;;;-6.05;87.03;99825.55;103626;1299;24402;-25
2022/03/03 01:33:50;;;;;;;45.20;16.80;;;;;;;-6.14;86.39;99827.05;103715;1299;24233;-25
2022/03/03 01:36:16;;;;;;;63.40;19.90;;;;;;;-6.23;86.19;99826.66;103590;1300;24281;-28
2022/03/03 01:38:41;;;;;;;56.90;16.20;;;;;;;-6.30;87.29;99827.21;103589;1300;24466;-28
2022/03/03 01:41:07;;;;;;;51.20;18.10;;;;;;;-6.33;86.29;99826.50;103621;1300;22842;-25
2022/03/03 01:43:33;;;;;;;49.40;19.20;;;;;;;-6.34;85.85;99823.73;103599;1300;24316;-28
2022/03/03 01:45:59;;;;;;;62.30;16.80;;;;;;;-6.31;85.82;99819.25;103531;1300;24387;-25
2022/03/03 01:48:25;;;;;;;58.30;17.80;;;;;;;-6.33;86.58;99815.70;103544;1300;22587;-25
2022/03/03 01:50:52;;;;;;;37.40;13.90;;;;;;;-6.37;87.81;99820.29;103533;1302;24250;-25
2022/03/03 01:53:18;;;;;;;59.50;19.40;;;;;;;-6.38;86.68;99815.59;103559;1300;22742;-26
2022/03/03 01:55:44;;;;;;;49.20;17.10;;;;;;;-6.39;86.21;99808.15;103345;1301;24706;-26
2022/03/03 01:58:10;;;;;;;62.30;20.10;;;;;;;-6.42;86.50;99807.48;103402;1302;24378;-26
2022/03/03 02:00:36;;;;;;;55.80;21.50;;;;;;;-6.43;86.63;99800.88;103560;1300;24311;-29
2022/03/03 02:03:02;;;;;;;53.60;19.20;;;;;;;-6.40;86.84;99796.38;103495;1301;24259;-26
2022/03/03 02:05:28;;;;;;;59.70;20.50;;;;;;;-6.30;86.96;99792.05;103481;1300;24214;-29
2022/03/03 02:07:54;;;;;;;62.30;21.10;;;;;;;-6.20;87.43;99787.85;103565;1300;24249;-29
2022/03/03 02:10:20;;;;;;;55.70;20.20;;;;;;;-6.17;87.50;99782.96;103514;1300;24266;-27
2022/03/03 02:12:45;;;;;;;63.30;20.00;;;;;;;-6.08;88.21;99783.38;103525;1300;24266;-30
2022/03/03 02:15:16;;;;;;;57.40;19.70;;;;;;;-6.01;87.78;99782.80;103452;1302;24432;-25
2022/03/03 02:17:42;;;;;;;52.80;20.70;;;;;;;-5.90;87.86;99780.99;103516;1302;24225;-26
2022/03/03 02:20:17;;;;;;;51.10;19.40;;;;;;;-5.79;87.78;99773.58;103553;1303;22747;-26
2022/03/03 02:22:43;;;;;;;65.40;20.40;;;;;;;-5.71;87.86;99769.30;103579;1303;24215;-28
2022/03/03 02:25:09;;;;;;;60.50;20.40;;;;;;;-5.67;87.81;99765.05;103603;1300;22501;-29
2022/03/03 02:27:34;;;;;;;61.40;20.20;;;;;;;-5.63;87.60;99761.16;103570;1300;24250;-28
2022/03/03 02:30:01;;;;;;;54.50;20.10;;;;;;;-5.55;87.76;99760.38;103505;1300;22720;-25
2022/03/03 02:32:27;;;;;;;61.30;20.10;;;;;;;-5.46;88.04;99758.84;103525;1301;24314;-28
2022/03/03 02:34:53;;;;;;;60.10;17.30;;;;;;;-5.39;88.06;99752.32;103554;1303;24448;-27
2022/03/03 02:37:18;;;;;;;52.10;18.40;;;;;;;-5.31;87.49;99750.99;103530;1300;24215;-29
2022/03/03 02:39:44;;;;;;;49.70;19.70;;;;;;;-5.28;87.75;99745.23;103507;1300;24970;-29
2022/03/03 02:42:10;;;;;;;54.50;20.20;;;;;;;-5.26;87.42;99747.71;103553;1300;24212;-29
2022/03/03 02:44:35;;;;;;;58.00;20.10;;;;;;;-5.22;87.32;99743.32;103640;1300;25222;-28
2022/03/03 02:47:01;;;;;;;51.20;18.40;;;;;;;-5.23;87.26;99739.18;103477;1303;22954;-28
2022/03/03 02:49:27;;;;;;;44.80;18.70;;;;;;;-5.20;88.49;99739.19;103552;1300;24211;-30
2022/03/03 02:51:52;;;;;;;50.80;17.80;;;;;;;-5.12;89.05;99736.97;103591;1302;24403;-27
2022/03/03 02:54:18;;;;;;;55.80;21.20;;;;;;;-5.09;88.83;99739.41;103541;1303;24341;-28
2022/03/03 02:59:13;;;;;;;58.90;21.40;;;;;;;-5.11;88.22;99737.63;103530;1301;24372;-25
2022/03/03 03:01:39;;;;;;;66.70;21.80;;;;;;;-5.14;87.85;99737.63;103544;1301;24309;-25
2022/03/03 03:04:04;;;;;;;50.00;16.60;;;;;;;-5.21;88.60;99736.08;103603;1300;24337;-28
2022/03/03 03:06:30;;;;;;;47.70;16.80;;;;;;;-5.21;88.54;99734.20;103516;1300;22696;-28
2022/03/03 03:08:56;;;;;;;56.00;19.20;;;;;;;-5.27;89.24;99734.84;103530;1300;24211;-26
2022/03/03 03:11:21;;;;;;;59.60;19.80;;;;;;;-5.28;88.87;99734.23;103515;1300;24368;-25
2022/03/03 03:13:47;;;;;;;55.00;19.60;;;;;;;-5.29;88.61;99729.77;103638;1303;24381;-28
2022/03/03 03:16:12;;;;;;;61.80;21.00;;;;;;;-5.30;87.14;99724.94;103553;1301;24206;-26
2022/03/03 03:18:39;;;;;;;60.00;20.40;;;;;;;-5.38;86.80;99722.06;103569;1300;24288;-25
2022/03/03 03:21:05;;;;;;;49.50;19.20;;;;;;;-5.45;86.28;99720.70;103561;1301;24299;-28
2022/03/03 03:23:31;;;;;;;52.00;17.70;;;;;;;-5.49;86.32;99719.02;103504;1300;24712;-28
2022/03/03 03:25:56;;;;;;;67.90;20.50;;;;;;;-5.51;87.07;99719.49;103538;1303;22620;-25
2022/03/03 03:28:22;;;;;;;50.90;20.50;;;;;;;-5.52;87.04;99715.70;103594;1302;22510;-25
2022/03/03 03:30:51;;;;;;;61.30;19.60;;;;;;;-5.52;87.47;99712.73;103501;1303;24327;-28
2022/03/03 03:33:17;;;;;;;55.50;19.80;;;;;;;-5.49;87.05;99711.53;103521;1303;24262;-29
2022/03/03 03:35:42;;;;;;;56.60;19.50;;;;;;;-5.45;86.80;99709.22;103534;1301;24244;-25
2022/03/03 03:38:08;;;;;;;57.50;21.60;;;;;;;-5.46;86.86;99709.79;103605;1300;24293;-28
2022/03/03 03:40:34;;;;;;;62.40;20.40;;;;;;;-5.48;87.23;99706.93;103535;1302;24375;-29
2022/03/03 03:42:59;;;;;;;74.30;25.10;;;;;;;-5.42;87.65;99702.43;103652;1300;24369;-28
2022/03/03 03:45:25;;;;;;;51.60;21.20;;;;;;;-5.36;87.34;99703.66;103544;1302;22500;-30
2022/03/03 03:47:51;;;;;;;64.40;22.70;;;;;;;-5.30;87.19;99700.83;103542;1302;22717;-25
2022/03/03 03:50:17;;;;;;;75.50;24.60;;;;;;;-5.27;87.20;99699.11;103513;1301;24356;-28
2022/03/03 03:52:43;;;;;;;83.80;25.60;;;;;;;-5.29;87.16;99699.05;103533;1302;24211;-25
2022/03/03 03:55:10;;;;;;;77.00;21.50;;;;;;;-5.30;87.20;99702.05;103477;1302;24393;-25
2022/03/03 03:57:36;;;;;;;77.40;23.90;;;;;;;-5.26;87.94;99698.17;103577;1301;22685;-25
2022/03/03 04:00:05;;;;;;;58.40;19.30;;;;;;;-5.22;88.05;99697.56;103438;1302;24316;-29
2022/03/03 04:02:30;;;;;;;66.70;22.30;;;;;;;-5.14;88.57;99694.70;103473;1302;26176;-29
2022/03/03 04:04:56;;;;;;;80.20;26.60;;;;;;;-5.10;87.67;99695.67;103550;1300;24308;-26
2022/03/03 04:07:22;;;;;;;97.80;26.50;;;;;;;-5.11;87.13;99694.88;103438;1302;24259;-25
2022/03/03 04:09:48;;;;;;;66.10;22.40;;;;;;;-5.14;87.65;99691.37;103506;1302;24221;-29
2022/03/03 04:12:13;;;;;;;73.00;22.60;;;;;;;-5.13;88.10;99694.84;103025;1302;724971;-28
2022/03/03 04:14:39;;;;;;;61.60;18.60;;;;;;;-5.10;88.32;99690.95;103558;1300;25380;-30
2022/03/03 04:17:06;;;;;;;84.30;25.10;;;;;;;-5.10;88.16;99690.29;103391;1302;24352;-30
2022/03/03 04:19:32;;;;;;;89.20;24.10;;;;;;;-5.11;88.20;99691.23;103560;1300;24314;-27
2022/03/03 04:21:57;;;;;;;66.40;21.30;;;;;;;-5.12;87.29;99693.70;103531;1300;24279;-25
2022/03/03 04:24:23;;;;;;;68.40;23.30;;;;;;;-5.15;87.33;99689.30;103591;1300;24286;-25
2022/03/03 04:26:49;;;;;;;69.60;24.20;;;;;;;-5.12;87.35;99689.00;103473;1303;24359;-30
2022/03/03 04:29:14;;;;;;;73.30;22.00;;;;;;;-5.14;86.38;99689.59;103571;1302;24226;-29
2022/03/03 04:31:40;;;;;;;79.90;26.60;;;;;;;-5.17;86.59;99683.51;103569;1302;24401;-30
2022/03/03 04:34:06;;;;;;;63.80;25.30;;;;;;;-5.14;86.77;99680.36;103575;1300;24249;-27
2022/03/03 04:36:32;;;;;;;78.90;25.50;;;;;;;-5.16;86.73;99677.33;103565;1300;24211;-29
2022/03/03 04:38:58;;;;;;;76.50;24.00;;;;;;;-5.21;87.25;99671.71;103526;1300;24292;-29
2022/03/03 04:41:23;;;;;;;74.90;25.90;;;;;;;-5.22;87.06;99672.08;103517;1302;24456;-29
2022/03/03 04:43:49;;;;;;;58.50;21.20;;;;;;;-5.23;86.84;99670.75;103573;1300;24237;-26
2022/03/03 04:46:15;;;;;;;64.30;23.50;;;;;;;-5.26;86.85;99672.69;103539;1302;22508;-29
2022/03/03 04:48:40;;;;;;;58.00;22.20;;;;;;;-5.28;86.65;99666.16;103735;1299;24298;-29
2022/03/03 04:51:06;;;;;;;67.30;19.80;;;;;;;-5.31;86.65;99659.19;103488;1302;24354;-29
2022/03/03 04:53:32;;;;;;;65.50;20.20;;;;;;;-5.36;86.56;99659.64;103546;1300;22519;-26
2022/03/03 04:55:58;;;;;;;65.80;21.40;;;;;;;-5.40;86.31;99659.04;103664;1300;24219;-29
2022/03/03 04:58:24;;;;;;;77.80;22.70;;;;;;;-5.46;86.09;99656.24;103604;1300;24416;-26
2022/03/03 05:00:49;;;;;;;68.00;24.40;;;;;;;-5.54;86.14;99651.31;103561;1300;24372;-24
2022/03/03 05:03:15;;;;;;;68.80;23.70;;;;;;;-5.65;86.06;99654.88;103679;1300;22795;-27
2022/03/03 05:05:41;;;;;;;67.20;21.30;;;;;;;-5.71;86.44;99654.70;103576;1300;22500;-26
2022/03/03 05:08:07;;;;;;;52.60;20.10;;;;;;;-5.78;86.44;99656.84;103622;1303;24453;-29
2022/03/03 05:10:33;;;;;;;77.80;22.20;;;;;;;-5.84;86.43;99662.23;103694;1299;24252;-29
2022/03/03 05:12:58;;;;;;;66.10;20.80;;;;;;;-5.86;86.81;99662.52;103625;1300;24298;-27
2022/03/03 05:15:25;;;;;;;51.60;19.30;;;;;;;-5.87;86.75;99667.42;103585;1303;24223;-25
2022/03/03 05:17:50;;;;;;;54.70;20.50;;;;;;;-5.91;86.59;99667.87;103547;1302;24416;-26
2022/03/03 05:20:16;;;;;;;67.40;21.40;;;;;;;-5.93;86.76;99665.91;103652;1300;24249;-25
2022/03/03 05:22:42;;;;;;;74.80;23.50;;;;;;;-5.97;86.39;99660.73;103699;1300;22499;-28
2022/03/03 05:25:10;;;;;;;69.10;20.70;;;;;;;-6.04;86.25;99656.06;103539;1303;24314;-26
2022/03/03 05:27:37;;;;;;;60.20;20.80;;;;;;;-6.07;86.57;99657.48;103530;1300;24275;-26
2022/03/03 05:30:04;;;;;;;57.70;22.20;;;;;;;-6.17;86.72;99659.23;103534;1300;24268;-25
2022/03/03 05:32:30;;;;;;;42.10;17.40;;;;;;;-6.24;88.09;99661.36;103645;1302;24262;-29
2022/03/03 05:34:56;;;;;;;37.40;14.70;;;;;;;-6.21;88.10;99666.95;103642;1300;22602;-25
2022/03/03 05:37:23;;;;;;;65.00;22.30;;;;;;;-6.20;87.06;99671.80;103564;1301;22496;-25
2022/03/03 05:39:49;;;;;;;41.70;17.60;;;;;;;-6.24;86.77;99669.55;103665;1299;24225;-27
2022/03/03 05:42:15;;;;;;;60.10;16.20;;;;;;;-6.29;87.48;99670.17;103490;1303;24352;-29
2022/03/03 05:44:42;;;;;;;48.70;18.40;;;;;;;-6.28;87.48;99667.67;103653;1300;24298;-25
2022/03/03 05:47:08;;;;;;;22.20;8.60;;;;;;;-6.29;87.38;99669.45;103517;1302;25898;-28
2022/03/03 05:49:34;;;;;;;27.60;9.10;;;;;;;-6.23;87.47;99669.52;103844;1300;24335;-25
2022/03/03 05:51:59;;;;;;;70.90;23.90;;;;;;;-6.19;87.09;99672.05;103650;1300;24281;-24
2022/03/03 05:54:25;;;;;;;39.50;15.50;;;;;;;-6.28;87.60;99670.12;103607;1300;24208;-26
2022/03/03 05:56:52;;;;;;;56.00;17.70;;;;;;;-6.25;87.47;99663.81;103647;1300;24214;-24
2022/03/03 05:59:17;;;;;;;58.60;18.80;;;;;;;-6.33;88.09;99660.48;103614;1300;24370;-27
2022/03/03 06:01:45;;;;;;;62.90;19.20;;;;;;;-6.40;89.06;99659.80;103490;1302;24278;-25
2022/03/03 06:04:13;;;;;;;60.50;19.00;;;;;;;-6.41;88.52;99660.36;103529;1300;24391;-25
2022/03/03 06:06:39;;;;;;;47.90;17.20;;;;;;;-6.39;88.18;99654.69;103550;1303;24456;-24
2022/03/03 06:09:12;;;;;;;39.10;17.50;;;;;;;-6.39;88.38;99652.40;103645;1300;24355;-25
2022/03/03 06:11:44;;;;;;;67.90;22.90;;;;;;;-6.33;89.35;99654.86;103550;1302;24300;-28
2022/03/03 06:14:10;;;;;;;60.60;17.60;;;;;;;-6.20;88.50;99651.55;103587;1300;25490;-30
2022/03/03 06:16:36;;;;;;;56.10;19.60;;;;;;;-6.11;88.40;99646.33;103689;1300;23967;-28
2022/03/03 06:19:02;;;;;;;57.70;20.60;;;;;;;-6.13;88.60;99648.05;103657;1302;22538;-29
2022/03/03 06:21:29;;;;;;;77.60;24.70;;;;;;;-6.06;88.76;99648.85;103545;1303;24299;-25
2022/03/03 06:23:55;;;;;;;62.60;21.00;;;;;;;-6.01;88.35;99641.61;103522;1302;24244;-27
2022/03/03 06:26:21;;;;;;;86.40;26.60;;;;;;;-5.99;87.59;99637.15;103630;1300;24358;-27
2022/03/03 06:28:47;;;;;;;60.00;20.90;;;;;;;-6.01;87.69;99634.63;103671;1300;22510;-28
2022/03/03 06:31:13;;;;;;;72.10;21.90;;;;;;;-5.95;87.87;99632.58;103569;1303;24237;-25
2022/03/03 06:33:40;;;;;;;46.50;18.50;;;;;;;-5.90;88.18;99629.43;103656;1300;24359;-28
2022/03/03 06:36:09;;;;;;;68.40;21.60;;;;;;;-5.75;87.85;99626.65;103581;1301;24248;-24
2022/03/03 06:38:35;;;;;;;81.10;25.60;;;;;;;-5.71;87.90;99622.94;103537;1300;24226;-30
2022/03/03 06:41:02;;;;;;;88.10;23.30;;;;;;;-5.64;88.07;99627.63;103634;1300;24249;-28
2022/03/03 06:43:29;;;;;;;62.40;23.90;;;;;;;-5.48;88.58;99631.91;103672;1300;24472;-28
2022/03/03 06:45:56;;;;;;;68.90;20.50;;;;;;;-5.37;87.90;99630.02;103539;1302;24228;-25
2022/03/03 06:48:22;;;;;;;61.50;21.80;;;;;;;-5.24;87.72;99626.16;103490;1302;24260;-30
2022/03/03 06:50:50;;;;;;;75.50;26.30;;;;;;;-5.09;87.65;99630.36;103579;1300;24291;-26
2022/03/03 06:53:16;;;;;;;52.80;19.00;;;;;;;-4.95;88.37;99628.59;103619;1301;25192;-26
2022/03/03 06:55:42;;;;;;;51.90;18.60;;;;;;;-4.72;87.53;99624.21;103734;1300;24173;-29
2022/03/03 06:58:08;;;;;;;58.60;18.20;;;;;;;-4.54;87.13;99620.52;103593;1300;24238;-25
2022/03/03 07:00:34;;;;;;;39.70;16.90;;;;;;;-4.28;87.21;99623.90;103634;1300;24230;-25
2022/03/03 07:03:01;;;;;;;61.80;18.60;;;;;;;-3.83;85.18;99627.84;103522;1302;24226;-27
2022/03/03 07:05:28;;;;;;;78.90;24.40;;;;;;;-3.81;83.22;99622.70;103594;1302;24263;-30
2022/03/03 07:07:54;;;;;;;41.90;17.80;;;;;;;-3.66;83.47;99624.50;103535;1301;24339;-30
2022/03/03 07:10:24;;;;;;;54.90;20.50;;;;;;;-3.59;83.51;99624.02;103649;1300;24241;-25
2022/03/03 07:12:51;;;;;;;60.20;23.90;;;;;;;-3.36;84.07;99626.14;103722;1299;25341;-26
2022/03/03 07:15:16;;;;;;;58.50;24.50;;;;;;;-3.07;84.16;99627.56;103553;1300;24205;-26
2022/03/03 07:17:49;;;;;;;63.80;22.40;;;;;;;-2.79;83.72;99626.17;103663;1300;24317;-29
2022/03/03 07:20:17;;;;;;;73.50;26.80;;;;;;;-2.48;83.59;99622.39;103543;1301;24244;-26
2022/03/03 07:22:52;;;;;;;134.10;36.70;;;;;;;-2.20;83.29;99620.57;103666;1300;24201;-26
2022/03/03 07:25:18;;;;;;;111.20;31.80;;;;;;;-2.02;82.17;99615.80;103506;1302;22506;-26
2022/03/03 07:27:45;;;;;;;155.70;41.30;;;;;;;-1.80;82.17;99616.48;103646;1300;24211;-24
2022/03/03 07:30:14;;;;;;;112.20;33.30;;;;;;;-1.74;81.75;99611.62;103522;1302;24214;-28
2022/03/03 07:32:44;;;;;;;136.50;36.50;;;;;;;-1.67;80.46;99613.56;103519;1302;23008;-29
2022/03/03 07:35:12;;;;;;;89.10;31.80;;;;;;;-1.43;79.37;99609.83;103554;1300;22496;-30
2022/03/03 07:37:41;;;;;;;164.20;37.90;;;;;;;-1.53;77.99;99610.95;103617;1300;24207;-30
2022/03/03 07:40:08;;;;;;;115.00;36.50;;;;;;;-1.56;78.66;99610.83;103597;1300;24281;-26
2022/03/03 07:42:35;;;;;;;117.90;31.80;;;;;;;-1.63;79.03;99609.55;103517;1300;24471;-26
2022/03/03 07:45:01;;;;;;;87.60;34.00;;;;;;;-1.60;79.32;99610.76;103554;1300;24520;-30
2022/03/03 07:47:28;;;;;;;77.40;27.10;;;;;;;-1.52;78.81;99611.04;103526;1302;24314;-28
2022/03/03 07:49:54;;;;;;;89.30;31.60;;;;;;;-1.53;78.75;99610.92;103503;1301;24460;-29
2022/03/03 07:52:20;;;;;;;152.80;36.70;;;;;;;-1.34;78.47;99614.23;103567;1300;24211;-29
2022/03/03 07:54:46;;;;;;;112.20;33.70;;;;;;;-1.23;77.17;99610.05;103507;1300;24344;-29
2022/03/03 07:57:15;;;;;;;152.50;36.10;;;;;;;-1.32;76.60;99610.42;103565;1300;24331;-26
2022/03/03 07:59:44;;;;;;;146.10;36.90;;;;;;;-1.38;76.03;99617.34;103554;1300;24291;-25
2022/03/03 08:02:10;;;;;;;87.20;26.50;;;;;;;-1.61;77.19;99618.41;103603;1300;24313;-26
2022/03/03 08:04:36;;;;;;;62.10;24.10;;;;;;;-1.58;77.98;99615.17;103579;1300;24263;-29
2022/03/03 08:07:06;;;;;;;69.00;26.30;;;;;;;-1.56;77.57;99619.41;103593;1300;22514;-26
2022/03/03 08:09:32;;;;;;;73.90;26.20;;;;;;;-1.53;77.69;99620.26;103573;1300;24380;-26
2022/03/03 08:11:59;;;;;;;153.10;41.30;;;;;;;-1.28;76.35;99620.13;103586;1300;24202;-30
2022/03/03 08:14:25;;;;;;;259.70;57.10;;;;;;;-1.26;75.45;99617.85;103610;1302;24499;-26
2022/03/03 08:16:51;;;;;;;228.60;54.00;;;;;;;-1.22;75.21;99614.02;103627;1302;24197;-25
2022/03/03 08:19:17;;;;;;;154.60;40.70;;;;;;;-1.22;76.18;99618.60;103549;1301;24247;-25
2022/03/03 08:21:44;;;;;;;114.10;32.90;;;;;;;-0.84;76.38;99621.48;103510;1303;24302;-25
2022/03/03 08:24:11;;;;;;;89.90;27.70;;;;;;;-0.86;76.13;99619.37;103572;1300;25334;-31
2022/03/03 08:26:37;;;;;;;88.10;25.40;;;;;;;-0.57;74.75;99615.55;103570;1300;24352;-31
2022/03/03 08:29:03;;;;;;;71.70;23.20;;;;;;;-0.68;75.29;99615.71;103551;1303;24252;-25
2022/03/03 08:31:35;;;;;;;95.30;32.80;;;;;;;-0.25;74.11;99615.99;103511;1300;24217;-30
2022/03/03 08:34:12;;;;;;;77.70;25.60;;;;;;;-0.18;74.51;99611.16;103572;1300;24364;-24
2022/03/03 08:36:45;;;;;;;97.30;30.70;;;;;;;0.49;71.67;99610.85;103565;1300;24301;-24
2022/03/03 08:39:13;;;;;;;66.90;25.30;;;;;;;0.47;70.78;99612.47;103618;1300;22858;-29
2022/03/03 08:41:39;;;;;;;51.90;20.80;;;;;;;1.13;69.16;99610.54;103583;1300;24331;-27
2022/03/03 08:44:05;;;;;;;63.40;28.20;;;;;;;1.32;67.23;99608.11;103515;1301;24728;-24
2022/03/03 08:46:33;;;;;;;70.60;30.00;;;;;;;1.32;68.51;99609.69;103548;1301;24296;-27
2022/03/03 08:49:01;;;;;;;56.80;22.00;;;;;;;1.67;69.09;99606.80;103567;1300;22508;-28
2022/03/03 08:51:27;;;;;;;54.10;22.70;;;;;;;2.00;67.46;99607.40;103529;1302;24301;-28
2022/03/03 08:53:53;;;;;;;68.00;27.40;;;;;;;2.11;67.77;99602.39;103548;1300;24213;-24
2022/03/03 08:56:19;;;;;;;79.70;30.40;;;;;;;2.19;66.43;99600.57;103591;1303;24329;-24
2022/03/03 08:58:45;;;;;;;65.20;28.20;;;;;;;2.66;66.88;99598.56;103602;1300;24248;-27
2022/03/03 09:01:10;;;;;;;60.60;23.50;;;;;;;3.29;64.16;99592.67;103494;1300;24352;-28
2022/03/03 09:03:38;;;;;;;55.40;24.70;;;;;;;3.45;61.68;99589.96;103447;1302;24255;-24
2022/03/03 09:06:04;;;;;;;71.40;24.70;;;;;;;3.52;60.66;99589.30;103579;1300;24248;-25
2022/03/03 09:08:29;;;;;;;38.50;17.80;;;;;;;3.57;59.78;99587.02;103587;1300;24211;-28
2022/03/03 09:10:55;;;;;;;46.10;22.00;;;;;;;3.75;60.52;99586.53;103611;1300;24455;-24
2022/03/03 09:13:21;;;;;;;48.40;23.40;;;;;;;4.10;57.18;99578.00;103576;1300;24282;-24
2022/03/03 09:15:47;;;;;;;54.30;24.30;;;;;;;3.97;56.72;99579.08;103547;1303;24204;-24
2022/03/03 09:18:12;;;;;;;53.80;23.20;;;;;;;4.15;56.49;99583.16;103601;1300;22504;-25
2022/03/03 09:20:38;;;;;;;36.90;17.90;;;;;;;4.38;57.02;99580.55;103351;1302;24215;-24
2022/03/03 09:23:04;;;;;;;47.50;20.70;;;;;;;4.53;54.07;99580.29;103546;1300;24406;-24
2022/03/03 09:25:30;;;;;;;41.70;21.10;;;;;;;4.54;53.83;99583.09;103602;1300;23292;-25
2022/03/03 09:27:56;;;;;;;36.90;18.10;;;;;;;4.76;52.56;99582.43;103609;1300;24173;-25
2022/03/03 09:30:22;;;;;;;40.60;16.80;;;;;;;4.92;50.34;99579.74;103520;1300;24456;-24
2022/03/03 09:32:49;;;;;;;29.90;16.80;;;;;;;4.71;51.10;99580.50;103575;1303;24245;-24
2022/03/03 09:35:16;;;;;;;39.70;17.90;;;;;;;4.79;52.18;99581.12;103564;1300;24367;-25
2022/03/03 09:37:42;;;;;;;32.20;17.80;;;;;;;5.06;51.99;99579.05;103623;1300;22971;-25
2022/03/03 09:40:09;;;;;;;33.20;17.40;;;;;;;5.51;50.75;99572.61;103571;1300;24248;-27
2022/03/03 09:42:35;;;;;;;31.40;16.60;;;;;;;5.70;50.52;99576.02;103529;1302;24347;-28
2022/03/03 09:45:02;;;;;;;30.40;15.30;;;;;;;6.19;48.88;99571.70;103451;1302;24237;-25
2022/03/03 09:47:28;;;;;;;32.10;17.40;;;;;;;6.12;47.14;99570.89;103475;1302;24237;-28
2022/03/03 09:49:54;;;;;;;26.80;15.20;;;;;;;6.07;49.05;99569.25;103579;1300;24395;-25
2022/03/03 09:52:20;;;;;;;33.50;19.00;;;;;;;6.56;47.84;99568.27;103512;1300;24246;-24
2022/03/03 09:54:49;;;;;;;27.40;17.70;;;;;;;6.59;46.79;99568.85;103579;1300;24365;-28
2022/03/03 09:57:15;;;;;;;31.90;17.10;;;;;;;7.30;45.00;99565.73;103486;1303;24422;-30
2022/03/03 09:59:42;;;;;;;43.50;18.70;;;;;;;6.49;45.74;99569.34;103464;1302;24223;-28
2022/03/03 10:02:07;;;;;;;31.60;17.40;;;;;;;6.52;46.38;99567.38;103616;1300;24213;-27
2022/03/03 10:04:34;;;;;;;25.80;16.30;;;;;;;6.09;44.84;99568.45;103459;1300;24250;-27
2022/03/03 10:07:04;;;;;;;32.60;17.10;;;;;;;6.11;46.53;99572.02;103535;1300;24323;-30
2022/03/03 10:09:30;;;;;;;41.50;20.60;;;;;;;6.48;45.71;99571.48;103581;1300;24195;-31
2022/03/03 10:12:00;;;;;;;21.30;13.30;;;;;;;6.49;45.80;99570.78;103556;1300;24234;-28
2022/03/03 10:14:26;;;;;;;21.50;9.90;;;;;;;7.00;44.55;99568.34;103634;1300;23980;-25
2022/03/03 10:16:52;;;;;;;29.80;17.30;;;;;;;7.20;42.51;99569.06;103574;1300;24315;-25
2022/03/03 10:19:17;;;;;;;37.00;15.30;;;;;;;6.79;43.49;99567.01;103596;1300;22503;-28
2022/03/03 10:21:43;;;;;;;32.50;13.40;;;;;;;6.88;43.35;99562.45;103577;1300;24196;-28
2022/03/03 10:24:16;;;;;;;20.00;11.00;;;;;;;6.59;42.91;99562.41;103570;1300;24288;-25
2022/03/03 10:26:44;;;;;;;22.20;10.00;;;;;;;7.08;42.02;99557.63;103585;1300;25905;-24
2022/03/03 10:29:15;;;;;;;32.50;17.10;;;;;;;6.81;42.40;99554.61;103580;1300;24224;-25
2022/03/03 10:31:45;;;;;;;22.80;12.60;;;;;;;6.87;42.73;99555.39;103643;1300;24332;-25
2022/03/03 10:34:17;;;;;;;30.30;15.60;;;;;;;7.13;40.77;99556.30;103573;1300;24368;-28
2022/03/03 10:36:43;;;;;;;38.40;15.90;;;;;;;7.42;40.89;99552.52;103526;1302;22502;-27
2022/03/03 10:39:08;;;;;;;23.40;9.30;;;;;;;7.49;39.95;99549.39;103603;1300;24378;-29
2022/03/03 10:41:39;;;;;;;27.20;14.50;;;;;;;7.26;40.15;99558.41;103546;1302;24433;-26
2022/03/03 10:44:07;;;;;;;28.90;13.80;;;;;;;7.54;40.67;99553.46;103638;1300;24436;-29
2022/03/03 10:46:33;;;;;;;26.90;15.40;;;;;;;8.29;38.64;99549.30;103572;1300;24274;-29
2022/03/03 10:48:58;;;;;;;34.60;10.80;;;;;;;7.92;39.28;99543.77;103618;1300;22728;-26
2022/03/03 10:51:25;;;;;;;19.00;11.80;;;;;;;8.05;36.83;99541.76;103549;1300;22514;-24
2022/03/03 10:53:54;;;;;;;12.50;9.20;;;;;;;8.02;37.16;99541.91;103575;1302;24244;-26
2022/03/03 10:56:20;;;;;;;21.90;13.70;;;;;;;8.56;34.39;99541.52;103392;1303;24283;-26
2022/03/03 10:58:49;;;;;;;22.10;11.50;;;;;;;8.34;36.21;99536.52;103557;1300;24320;-28
2022/03/03 11:01:16;;;;;;;17.10;11.70;;;;;;;8.25;35.48;99536.65;103499;1302;24410;-25
2022/03/03 11:03:49;;;;;;;25.50;13.20;;;;;;;8.40;35.86;99535.90;103568;1300;22498;-32
2022/03/03 11:06:16;;;;;;;17.30;11.30;;;;;;;8.41;35.93;99536.90;103568;1300;24266;-30
2022/03/03 11:08:42;;;;;;;23.20;13.60;;;;;;;8.51;35.30;99529.71;103597;1300;24409;-27
2022/03/03 11:11:08;;;;;;;24.80;13.30;;;;;;;8.53;35.37;99531.56;103556;1300;24300;-25